Wetterdaten: Woche 31.08.09 - 06.09.09 (KW36)
Datum Zeit Temperatur Luftfeuchte Luftdruck Niederschlag Wind Richtung Sonnenschein Solar Taupunkt Windchill Windben
31.08.2009 00:00 12.0 C 83 % 1020.8 hPa 0.0 l/m 2.4 km/h (1 Bft) O-SO 0.00 h 0 W/m 9.2 C 12.0 C 3.7 km/h (1 Bft)
31.08.2009 01:00 11.2 C 86 % 1020.7 hPa 0.0 l/m 1.6 km/h (1 Bft) O-SO 0.00 h 0 W/m 8.9 C 11.2 C 2.6 km/h (1 Bft)
31.08.2009 02:00 10.6 C 88 % 1020.6 hPa 0.0 l/m 1.2 km/h (1 Bft) O-SO 0.00 h 0 W/m 8.7 C 10.6 C 2.3 km/h (1 Bft)
31.08.2009 03:00 9.9 C 88 % 1020.4 hPa 0.0 l/m 0.3 km/h (0 Bft) O-SO 0.00 h 0 W/m 8.1 C 9.9 C 0.9 km/h (0 Bft)
31.08.2009 04:00 9.4 C 91 % 1020.3 hPa 0.0 l/m 1.7 km/h (1 Bft) O-SO 0.00 h 0 W/m 8.0 C 9.4 C 2.8 km/h (1 Bft)
31.08.2009 05:00 9.0 C 93 % 1020.1 hPa 0.0 l/m 0.2 km/h (0 Bft) O-SO 0.00 h 0 W/m 7.9 C 9.0 C 0.5 km/h (0 Bft)
31.08.2009 06:00 8.4 C 93 % 1019.9 hPa 0.0 l/m 0.3 km/h (0 Bft) O-SO 0.00 h 7 W/m 7.3 C 8.4 C 1.1 km/h (1 Bft)
31.08.2009 07:00 8.3 C 95 % 1020.2 hPa 0.0 l/m 0.1 km/h (0 Bft) O-SO 0.03 h 25 W/m 7.4 C 8.3 C 0.4 km/h (0 Bft)
31.08.2009 08:00 10.5 C 95 % 1020.5 hPa 0.0 l/m 0.5 km/h (0 Bft) N-NO 1.00 h 204 W/m 9.7 C 10.5 C 1.2 km/h (1 Bft)
31.08.2009 09:00 14.6 C 77 % 1020.0 hPa 0.0 l/m 1.4 km/h (1 Bft) N 1.00 h 371 W/m 10.5 C 14.6 C 3.3 km/h (1 Bft)
31.08.2009 10:00 17.6 C 67 % 1019.5 hPa 0.0 l/m 1.8 km/h (1 Bft) N 1.00 h 522 W/m 11.2 C 17.6 C 3.9 km/h (1 Bft)
31.08.2009 11:00 20.4 C 61 % 1019.1 hPa 0.0 l/m 1.7 km/h (1 Bft) NW 1.00 h 639 W/m 12.5 C 20.4 C 3.5 km/h (1 Bft)
31.08.2009 12:00 22.2 C 53 % 1018.3 hPa 0.0 l/m 2.7 km/h (1 Bft) O-SO 1.00 h 713 W/m 12.2 C 22.2 C 5.3 km/h (1 Bft)
31.08.2009 13:00 23.7 C 45 % 1017.5 hPa 0.0 l/m 3.8 km/h (1 Bft) O-SO 1.00 h 740 W/m 10.9 C 23.7 C 6.8 km/h (2 Bft)
31.08.2009 14:00 25.0 C 45 % 1016.7 hPa 0.0 l/m 1.9 km/h (1 Bft) O-SO 1.00 h 711 W/m 12.2 C 25.0 C 4.6 km/h (1 Bft)
31.08.2009 15:00 26.1 C 45 % 1015.7 hPa 0.0 l/m 2.4 km/h (1 Bft) W-NW 1.00 h 634 W/m 13.2 C 26.1 C 4.9 km/h (1 Bft)
31.08.2009 16:00 26.6 C 44 % 1014.9 hPa 0.0 l/m 3.9 km/h (1 Bft) O-SO 1.00 h 516 W/m 13.3 C 26.6 C 6.8 km/h (2 Bft)
31.08.2009 17:00 27.1 C 42 % 1014.6 hPa 0.0 l/m 1.8 km/h (1 Bft) W 1.00 h 369 W/m 13.1 C 27.1 C 3.8 km/h (1 Bft)
31.08.2009 18:00 26.6 C 44 % 1014.2 hPa 0.0 l/m 1.4 km/h (1 Bft) O-SO 0.78 h 187 W/m 13.3 C 26.6 C 3.1 km/h (1 Bft)
31.08.2009 19:00 25.1 C 52 % 1013.8 hPa 0.0 l/m 4.6 km/h (1 Bft) O-SO 0.50 h 54 W/m 14.5 C 25.1 C 6.3 km/h (2 Bft)
31.08.2009 20:00 22.2 C 65 % 1014.1 hPa 0.0 l/m 3.4 km/h (1 Bft) O-SO 0.00 h 6 W/m 15.2 C 22.2 C 4.6 km/h (1 Bft)
31.08.2009 21:00 19.8 C 74 % 1014.7 hPa 0.0 l/m 2.4 km/h (1 Bft) O-SO 0.00 h 0 W/m 15.1 C 19.8 C 4.0 km/h (1 Bft)
31.08.2009 22:00 18.4 C 79 % 1014.9 hPa 0.0 l/m 1.0 km/h (0 Bft) O-SO 0.00 h 0 W/m 14.7 C 18.4 C 2.0 km/h (1 Bft)
31.08.2009 23:00 17.1 C 84 % 1014.9 hPa 0.0 l/m 1.2 km/h (1 Bft) O-SO 0.00 h 0 W/m 14.3 C 17.1 C 2.3 km/h (1 Bft)
01.09.2009 00:00 16.5 C 86 % 1015.0 hPa 0.0 l/m 0.8 km/h (0 Bft) O-SO 0.00 h 0 W/m 14.1 C 16.5 C 2.0 km/h (1 Bft)
01.09.2009 01:00 15.8 C 89 % 1015.0 hPa 0.0 l/m 0.2 km/h (0 Bft) O-SO 0.00 h 0 W/m 13.9 C 15.8 C 0.8 km/h (0 Bft)
01.09.2009 02:00 15.2 C 90 % 1014.9 hPa 0.0 l/m 0.3 km/h (0 Bft) O-SO 0.00 h 0 W/m 13.6 C 15.2 C 1.1 km/h (0 Bft)
01.09.2009 03:00 14.7 C 92 % 1014.9 hPa 0.0 l/m 0.2 km/h (0 Bft) O-SO 0.00 h 0 W/m 13.4 C 14.7 C 0.8 km/h (0 Bft)
01.09.2009 04:00 14.2 C 94 % 1015.0 hPa 0.0 l/m 0.5 km/h (0 Bft) O-SO 0.00 h 0 W/m 13.2 C 14.2 C 1.0 km/h (0 Bft)
01.09.2009 05:00 13.8 C 94 % 1015.2 hPa 0.0 l/m 0.9 km/h (0 Bft) O-SO 0.00 h 0 W/m 12.9 C 13.8 C 1.9 km/h (1 Bft)
01.09.2009 06:00 13.4 C 95 % 1015.5 hPa 0.0 l/m 0.2 km/h (0 Bft) O-SO 0.02 h 8 W/m 12.7 C 13.4 C 0.6 km/h (0 Bft)
01.09.2009 07:00 13.3 C 97 % 1015.9 hPa 0.0 l/m 0.3 km/h (0 Bft) O-SO 0.00 h 27 W/m 12.8 C 13.3 C 1.0 km/h (0 Bft)
01.09.2009 08:00 15.1 C 96 % 1016.1 hPa 0.0 l/m 0.0 km/h (0 Bft) N 1.00 h 188 W/m 14.5 C 15.1 C 0.3 km/h (0 Bft)
01.09.2009 09:00 18.9 C 81 % 1015.7 hPa 0.0 l/m 0.2 km/h (0 Bft) O-SO 1.00 h 348 W/m 15.5 C 18.9 C 1.0 km/h (0 Bft)
01.09.2009 10:00 21.6 C 72 % 1015.4 hPa 0.0 l/m 1.0 km/h (0 Bft) O-SO 1.00 h 494 W/m 16.3 C 21.6 C 2.9 km/h (1 Bft)
01.09.2009 11:00 24.6 C 64 % 1014.8 hPa 0.0 l/m 2.4 km/h (1 Bft) S-SO 1.00 h 613 W/m 17.2 C 24.6 C 5.0 km/h (1 Bft)
01.09.2009 12:00 26.6 C 57 % 1013.5 hPa 0.0 l/m 2.9 km/h (1 Bft) S-SO 1.00 h 694 W/m 17.3 C 26.6 C 5.8 km/h (2 Bft)
01.09.2009 13:00 28.0 C 52 % 1012.7 hPa 0.0 l/m 2.3 km/h (1 Bft) W-NW 1.00 h 723 W/m 17.2 C 28.0 C 4.7 km/h (1 Bft)
01.09.2009 14:00 29.2 C 48 % 1011.9 hPa 0.0 l/m 2.7 km/h (1 Bft) O-SO 1.00 h 697 W/m 17.2 C 29.2 C 4.9 km/h (1 Bft)
01.09.2009 15:00 30.3 C 41 % 1011.1 hPa 0.0 l/m 3.0 km/h (1 Bft) O-SO 1.00 h 618 W/m 15.6 C 30.3 C 5.5 km/h (1 Bft)
01.09.2009 16:00 31.6 C 37 % 1010.9 hPa 0.0 l/m 3.7 km/h (1 Bft) W 0.97 h 471 W/m 14.8 C 31.6 C 7.9 km/h (2 Bft)
01.09.2009 17:00 29.4 C 43 % 1011.6 hPa 0.0 l/m 11.4 km/h (2 Bft) W 0.00 h 57 W/m 15.2 C 29.4 C 18.1 km/h (3 Bft)
01.09.2009 18:00 26.4 C 52 % 1012.7 hPa 0.0 l/m 19.3 km/h (3 Bft) W 0.07 h 73 W/m 15.7 C 26.4 C 28.0 km/h (4 Bft)
01.09.2009 19:00 25.6 C 53 % 1013.6 hPa 0.0 l/m 10.6 km/h (2 Bft) W 0.00 h 30 W/m 15.4 C 25.6 C 16.4 km/h (3 Bft)
01.09.2009 20:00 24.1 C 63 % 1015.3 hPa 1.8 l/m 21.8 km/h (4 Bft) W 0.00 h 0 W/m 16.4 C 24.1 C 33.9 km/h (5 Bft)
01.09.2009 21:00 19.4 C 85 % 1017.7 hPa 1.8 l/m 7.3 km/h (2 Bft) W-NW 0.00 h 0 W/m 16.8 C 19.4 C 10.8 km/h (2 Bft)
01.09.2009 22:00 17.8 C 92 % 1016.4 hPa 0.0 l/m 1.4 km/h (1 Bft) O 0.00 h 0 W/m 16.5 C 17.8 C 3.2 km/h (1 Bft)
01.09.2009 23:00 17.4 C 94 % 1016.9 hPa 0.0 l/m 0.6 km/h (0 Bft) O-NO 0.00 h 0 W/m 16.5 C 17.4 C 2.1 km/h (1 Bft)
02.09.2009 00:00 17.3 C 95 % 1017.0 hPa 0.0 l/m 0.2 km/h (0 Bft) O 0.00 h 0 W/m 16.6 C 17.3 C 0.9 km/h (0 Bft)
02.09.2009 01:00 17.2 C 96 % 1016.8 hPa 0.0 l/m 0.2 km/h (0 Bft) O 0.00 h 0 W/m 16.6 C 17.2 C 1.0 km/h (0 Bft)
02.09.2009 02:00 17.1 C 96 % 1016.5 hPa 0.0 l/m 1.3 km/h (1 Bft) O 0.00 h 0 W/m 16.4 C 17.1 C 2.2 km/h (1 Bft)
02.09.2009 03:00 17.0 C 97 % 1016.0 hPa 0.0 l/m 0.9 km/h (0 Bft) O-SO 0.00 h 0 W/m 16.4 C 17.0 C 2.2 km/h (1 Bft)
02.09.2009 04:00 16.8 C 97 % 1015.8 hPa 0.0 l/m 0.3 km/h (0 Bft) O-SO 0.00 h 0 W/m 16.3 C 16.8 C 1.2 km/h (1 Bft)
02.09.2009 05:00 16.9 C 97 % 1016.0 hPa 0.0 l/m 0.5 km/h (0 Bft) O-SO 0.00 h 0 W/m 16.4 C 16.9 C 1.7 km/h (1 Bft)
02.09.2009 06:00 16.8 C 97 % 1015.9 hPa 0.0 l/m 0.8 km/h (0 Bft) O-SO 0.00 h 5 W/m 16.4 C 16.8 C 2.2 km/h (1 Bft)
02.09.2009 07:00 17.1 C 98 % 1016.3 hPa 0.0 l/m 0.6 km/h (0 Bft) O 0.00 h 17 W/m 16.8 C 17.1 C 1.5 km/h (1 Bft)
02.09.2009 08:00 17.4 C 98 % 1016.5 hPa 0.0 l/m 0.0 km/h (0 Bft) N 0.00 h 25 W/m 17.1 C 17.4 C 0.1 km/h (0 Bft)
02.09.2009 09:00 17.7 C 98 % 1016.8 hPa 0.0 l/m 0.4 km/h (0 Bft) O-SO 0.00 h 35 W/m 17.4 C 17.7 C 1.3 km/h (1 Bft)
02.09.2009 10:00 18.3 C 98 % 1016.8 hPa 0.0 l/m 0.2 km/h (0 Bft) W 0.15 h 177 W/m 17.9 C 18.3 C 0.7 km/h (0 Bft)
02.09.2009 11:00 20.5 C 87 % 1016.3 hPa 0.0 l/m 2.6 km/h (1 Bft) W 0.43 h 358 W/m 18.3 C 20.5 C 4.8 km/h (1 Bft)
02.09.2009 12:00 20.7 C 85 % 1015.8 hPa 0.0 l/m 4.6 km/h (1 Bft) N-NW 0.30 h 409 W/m 18.0 C 20.7 C 7.5 km/h (2 Bft)
02.09.2009 13:00 22.1 C 77 % 1015.0 hPa 0.0 l/m 4.6 km/h (1 Bft) N-NW 0.68 h 505 W/m 17.8 C 22.1 C 7.3 km/h (2 Bft)
02.09.2009 14:00 21.7 C 77 % 1014.8 hPa 1.0 l/m 5.6 km/h (1 Bft) W-NW 0.00 h 91 W/m 17.5 C 21.7 C 8.7 km/h (2 Bft)
02.09.2009 15:00 20.1 C 86 % 1014.6 hPa 0.6 l/m 2.4 km/h (1 Bft) W-NW 0.00 h 108 W/m 17.7 C 20.1 C 4.8 km/h (1 Bft)
02.09.2009 16:00 19.3 C 91 % 1014.4 hPa 0.0 l/m 2.8 km/h (1 Bft) W-NW 0.27 h 224 W/m 17.8 C 19.3 C 5.2 km/h (1 Bft)
02.09.2009 17:00 19.9 C 89 % 1013.6 hPa 0.0 l/m 2.2 km/h (1 Bft) SO 0.15 h 161 W/m 18.0 C 19.9 C 4.8 km/h (1 Bft)
02.09.2009 18:00 20.2 C 84 % 1013.0 hPa 0.0 l/m 0.7 km/h (0 Bft) SO 0.00 h 83 W/m 17.5 C 20.2 C 2.0 km/h (1 Bft)
02.09.2009 19:00 19.9 C 85 % 1012.4 hPa 0.0 l/m 0.2 km/h (0 Bft) S 0.00 h 30 W/m 17.3 C 19.9 C 0.7 km/h (0 Bft)
02.09.2009 20:00 18.9 C 89 % 1012.0 hPa 0.0 l/m 1.6 km/h (1 Bft) SO 0.00 h 0 W/m 17.1 C 18.9 C 2.4 km/h (1 Bft)
02.09.2009 21:00 17.9 C 92 % 1011.8 hPa 0.0 l/m 1.1 km/h (1 Bft) SO 0.00 h 0 W/m 16.7 C 17.9 C 2.1 km/h (1 Bft)
02.09.2009 22:00 17.7 C 95 % 1011.2 hPa 0.2 l/m 0.3 km/h (0 Bft) O-SO 0.00 h 0 W/m 16.9 C 17.7 C 1.0 km/h (0 Bft)
02.09.2009 23:00 17.6 C 96 % 1010.8 hPa 0.0 l/m 0.6 km/h (0 Bft) O-SO 0.00 h 0 W/m 17.0 C 17.6 C 1.6 km/h (1 Bft)
03.09.2009 00:00 17.5 C 97 % 1009.9 hPa 0.0 l/m 0.3 km/h (0 Bft) O-SO 0.00 h 0 W/m 17.1 C 17.5 C 1.2 km/h (1 Bft)
03.09.2009 01:00 17.5 C 97 % 1009.3 hPa 2.6 l/m 0.7 km/h (0 Bft) O-SO 0.00 h 0 W/m 17.0 C 17.5 C 1.8 km/h (1 Bft)
03.09.2009 02:00 17.2 C 98 % 1008.2 hPa 0.6 l/m 0.4 km/h (0 Bft) O-SO 0.00 h 0 W/m 16.9 C 17.2 C 1.0 km/h (0 Bft)
03.09.2009 03:00 17.3 C 98 % 1008.3 hPa 1.4 l/m 2.0 km/h (1 Bft) S 0.00 h 0 W/m 17.0 C 17.3 C 3.8 km/h (1 Bft)
03.09.2009 04:00 17.2 C 99 % 1008.2 hPa 0.0 l/m 2.0 km/h (1 Bft) S 0.00 h 0 W/m 17.0 C 17.2 C 3.8 km/h (1 Bft)
03.09.2009 05:00 17.4 C 99 % 1007.8 hPa 0.0 l/m 2.5 km/h (1 Bft) S-SO 0.00 h 0 W/m 17.3 C 17.4 C 5.6 km/h (1 Bft)
03.09.2009 06:00 17.3 C 99 % 1007.4 hPa 0.0 l/m 1.2 km/h (1 Bft) S-SO 0.00 h 5 W/m 17.2 C 17.3 C 3.0 km/h (1 Bft)
03.09.2009 07:00 17.4 C 99 % 1007.1 hPa 0.0 l/m 2.7 km/h (1 Bft) S-SO 0.00 h 24 W/m 17.2 C 17.4 C 5.1 km/h (1 Bft)
03.09.2009 08:00 18.4 C 100 % 1006.7 hPa 0.0 l/m 1.3 km/h (1 Bft) S 0.52 h 154 W/m 18.4 C 18.4 C 3.7 km/h (1 Bft)
03.09.2009 09:00 20.0 C 94 % 1006.3 hPa 0.2 l/m 0.2 km/h (0 Bft) S 0.32 h 187 W/m 19.1 C 20.0 C 1.3 km/h (1 Bft)
03.09.2009 10:00 19.5 C 89 % 1007.3 hPa 0.6 l/m 11.7 km/h (2 Bft) W 0.00 h 125 W/m 17.7 C 19.5 C 18.5 km/h (3 Bft)
03.09.2009 11:00 18.3 C 92 % 1008.3 hPa 0.2 l/m 6.8 km/h (2 Bft) W-SW 0.00 h 140 W/m 16.9 C 18.3 C 12.3 km/h (3 Bft)
03.09.2009 12:00 18.2 C 92 % 1008.8 hPa 0.4 l/m 12.0 km/h (2 Bft) W 0.00 h 143 W/m 16.9 C 18.2 C 19.1 km/h (3 Bft)
03.09.2009 13:00 18.5 C 86 % 1008.7 hPa 0.0 l/m 13.4 km/h (3 Bft) W 0.50 h 482 W/m 16.0 C 18.5 C 21.9 km/h (4 Bft)
03.09.2009 14:00 19.8 C 70 % 1008.5 hPa 0.0 l/m 18.4 km/h (3 Bft) W 0.75 h 578 W/m 14.1 C 19.8 C 28.6 km/h (4 Bft)
03.09.2009 15:00 20.9 C 65 % 1008.5 hPa 0.2 l/m 16.5 km/h (3 Bft) W 0.72 h 458 W/m 14.1 C 20.9 C 26.5 km/h (4 Bft)
03.09.2009 16:00 21.5 C 60 % 1008.4 hPa 0.0 l/m 17.6 km/h (3 Bft) W 0.67 h 422 W/m 13.3 C 21.5 C 27.2 km/h (4 Bft)
03.09.2009 17:00 20.3 C 63 % 1009.1 hPa 0.0 l/m 20.0 km/h (4 Bft) W 0.03 h 99 W/m 13.1 C 20.3 C 30.9 km/h (5 Bft)
03.09.2009 18:00 18.4 C 67 % 1009.8 hPa 0.0 l/m 16.2 km/h (3 Bft) W 0.05 h 90 W/m 12.1 C 18.4 C 25.2 km/h (4 Bft)
03.09.2009 19:00 17.7 C 68 % 1010.0 hPa 0.0 l/m 12.5 km/h (3 Bft) W 0.00 h 20 W/m 11.8 C 17.7 C 20.0 km/h (4 Bft)
03.09.2009 20:00 17.2 C 71 % 1010.3 hPa 0.0 l/m 8.8 km/h (2 Bft) W 0.00 h 0 W/m 11.8 C 17.2 C 14.1 km/h (3 Bft)
03.09.2009 21:00 16.8 C 73 % 1010.8 hPa 0.0 l/m 5.4 km/h (1 Bft) W 0.00 h 0 W/m 11.9 C 16.8 C 9.3 km/h (2 Bft)
03.09.2009 22:00 16.7 C 74 % 1010.7 hPa 0.0 l/m 2.7 km/h (1 Bft) W 0.00 h 0 W/m 12.0 C 16.7 C 5.2 km/h (1 Bft)
03.09.2009 23:00 16.4 C 76 % 1010.6 hPa 0.0 l/m 0.4 km/h (0 Bft) NW 0.00 h 0 W/m 12.2 C 16.4 C 1.3 km/h (1 Bft)
04.09.2009 00:00 16.1 C 79 % 1010.4 hPa 0.0 l/m 0.7 km/h (0 Bft) NW 0.00 h 0 W/m 12.5 C 16.1 C 2.2 km/h (1 Bft)
04.09.2009 01:00 15.9 C 82 % 1010.3 hPa 0.0 l/m 1.6 km/h (1 Bft) SO 0.00 h 0 W/m 12.8 C 15.9 C 3.2 km/h (1 Bft)
04.09.2009 02:00 16.0 C 79 % 1009.7 hPa 0.0 l/m 4.5 km/h (1 Bft) W 0.00 h 0 W/m 12.3 C 16.0 C 7.6 km/h (2 Bft)
04.09.2009 03:00 15.7 C 82 % 1010.0 hPa 0.2 l/m 9.2 km/h (2 Bft) W 0.00 h 0 W/m 12.6 C 15.7 C 14.8 km/h (3 Bft)
04.09.2009 04:00 14.8 C 84 % 1010.2 hPa 0.2 l/m 11.8 km/h (2 Bft) W 0.00 h 0 W/m 12.2 C 14.8 C 19.5 km/h (3 Bft)
04.09.2009 05:00 14.0 C 89 % 1010.0 hPa 0.0 l/m 7.0 km/h (2 Bft) W 0.00 h 0 W/m 12.2 C 14.0 C 11.7 km/h (2 Bft)
04.09.2009 06:00 13.8 C 91 % 1010.1 hPa 0.0 l/m 2.5 km/h (1 Bft) W-SW 0.00 h 0 W/m 12.3 C 13.8 C 5.3 km/h (1 Bft)
04.09.2009 07:00 13.7 C 91 % 1010.1 hPa 0.2 l/m 1.3 km/h (1 Bft) SW 0.00 h 24 W/m 12.3 C 13.7 C 3.6 km/h (1 Bft)
04.09.2009 08:00 14.0 C 92 % 1009.5 hPa 0.0 l/m 2.4 km/h (1 Bft) W 0.00 h 79 W/m 12.7 C 14.0 C 5.0 km/h (1 Bft)
04.09.2009 09:00 14.7 C 89 % 1009.1 hPa 0.0 l/m 1.4 km/h (1 Bft) S-SO 0.00 h 129 W/m 12.9 C 14.7 C 3.3 km/h (1 Bft)
04.09.2009 10:00 15.6 C 83 % 1008.5 hPa 0.0 l/m 0.7 km/h (0 Bft) SO 0.02 h 146 W/m 12.8 C 15.6 C 2.1 km/h (1 Bft)
04.09.2009 11:00 17.5 C 77 % 1008.1 hPa 0.0 l/m 0.6 km/h (0 Bft) SO 0.65 h 417 W/m 13.4 C 17.5 C 2.1 km/h (1 Bft)
04.09.2009 12:00 17.7 C 77 % 1008.1 hPa 2.2 l/m 3.0 km/h (1 Bft) W-NW 0.02 h 119 W/m 13.7 C 17.7 C 5.5 km/h (1 Bft)
04.09.2009 13:00 15.8 C 87 % 1008.3 hPa 3.0 l/m 1.3 km/h (1 Bft) O-SO 0.00 h 99 W/m 13.6 C 15.8 C 3.2 km/h (1 Bft)
04.09.2009 14:00 15.8 C 91 % 1007.8 hPa 1.2 l/m 1.0 km/h (0 Bft) N 0.00 h 147 W/m 14.4 C 15.8 C 2.4 km/h (1 Bft)
04.09.2009 15:00 17.4 C 95 % 1007.4 hPa 0.0 l/m 6.8 km/h (2 Bft) W 0.57 h 516 W/m 16.7 C 17.4 C 10.9 km/h (2 Bft)
04.09.2009 16:00 16.4 C 89 % 1009.0 hPa 2.4 l/m 19.8 km/h (3 Bft) W 0.00 h 80 W/m 14.6 C 16.4 C 30.1 km/h (5 Bft)
04.09.2009 17:00 14.6 C 91 % 1010.7 hPa 0.0 l/m 21.3 km/h (4 Bft) W 0.13 h 149 W/m 13.1 C 14.6 C 32.6 km/h (5 Bft)
04.09.2009 18:00 14.5 C 86 % 1011.9 hPa 0.4 l/m 15.5 km/h (3 Bft) W 0.00 h 57 W/m 12.2 C 14.5 C 24.6 km/h (4 Bft)
04.09.2009 19:00 13.1 C 86 % 1013.3 hPa 0.2 l/m 12.5 km/h (3 Bft) W 0.00 h 14 W/m 10.8 C 13.1 C 21.5 km/h (4 Bft)
04.09.2009 20:00 12.7 C 86 % 1015.0 hPa 0.2 l/m 17.2 km/h (3 Bft) W 0.00 h 0 W/m 10.5 C 12.7 C 26.6 km/h (4 Bft)
04.09.2009 21:00 12.7 C 83 % 1017.0 hPa 0.2 l/m 20.7 km/h (4 Bft) W 0.00 h 0 W/m 9.9 C 12.7 C 31.7 km/h (5 Bft)
04.09.2009 22:00 11.3 C 87 % 1018.7 hPa 0.4 l/m 10.5 km/h (2 Bft) W 0.00 h 0 W/m 9.3 C 11.3 C 17.4 km/h (3 Bft)
04.09.2009 23:00 10.5 C 90 % 1020.3 hPa 0.0 l/m 2.0 km/h (1 Bft) W-SW 0.00 h 0 W/m 8.9 C 10.5 C 4.9 km/h (1 Bft)
05.09.2009 00:00 10.6 C 90 % 1021.5 hPa 0.0 l/m 2.8 km/h (1 Bft) S-SO 0.00 h 0 W/m 9.0 C 10.6 C 5.4 km/h (1 Bft)
05.09.2009 01:00 10.3 C 90 % 1021.9 hPa 0.0 l/m 1.9 km/h (1 Bft) S-SO 0.00 h 0 W/m 8.7 C 10.3 C 4.1 km/h (1 Bft)
05.09.2009 02:00 9.6 C 90 % 1021.9 hPa 0.0 l/m 3.3 km/h (1 Bft) S-SO 0.00 h 0 W/m 8.1 C 9.5 C 5.7 km/h (1 Bft)
05.09.2009 03:00 9.1 C 91 % 1022.0 hPa 0.0 l/m 2.1 km/h (1 Bft) SO 0.00 h 0 W/m 7.7 C 9.1 C 3.6 km/h (1 Bft)
05.09.2009 04:00 8.6 C 92 % 1022.2 hPa 0.0 l/m 0.0 km/h (0 Bft) N 0.00 h 0 W/m 7.3 C 8.6 C 0.0 km/h (0 Bft)
05.09.2009 05:00 8.2 C 93 % 1022.5 hPa 0.2 l/m 0.4 km/h (0 Bft) O-SO 0.00 h 0 W/m 7.2 C 8.2 C 1.4 km/h (1 Bft)
05.09.2009 06:00 8.1 C 95 % 1022.7 hPa 0.0 l/m 3.0 km/h (1 Bft) O 0.00 h 8 W/m 7.3 C 8.0 C 4.6 km/h (1 Bft)
05.09.2009 07:00 8.0 C 96 % 1023.3 hPa 0.0 l/m 3.2 km/h (1 Bft) O-SO 0.03 h 30 W/m 7.4 C 7.8 C 5.1 km/h (1 Bft)
05.09.2009 08:00 10.0 C 95 % 1023.4 hPa 0.0 l/m 0.7 km/h (0 Bft) O-SO 0.95 h 201 W/m 9.2 C 10.0 C 2.3 km/h (1 Bft)
05.09.2009 09:00 12.5 C 82 % 1023.6 hPa 0.0 l/m 1.5 km/h (1 Bft) SO 0.97 h 369 W/m 9.4 C 12.5 C 3.6 km/h (1 Bft)
05.09.2009 10:00 14.0 C 71 % 1024.1 hPa 0.0 l/m 8.0 km/h (2 Bft) W-NW 1.00 h 539 W/m 8.9 C 14.0 C 12.9 km/h (3 Bft)
05.09.2009 11:00 15.1 C 66 % 1024.1 hPa 0.0 l/m 7.8 km/h (2 Bft) W 0.83 h 542 W/m 8.7 C 15.1 C 13.3 km/h (3 Bft)
05.09.2009 12:00 15.9 C 61 % 1024.0 hPa 0.0 l/m 8.2 km/h (2 Bft) W-NW 0.55 h 572 W/m 8.3 C 15.9 C 13.3 km/h (3 Bft)
05.09.2009 13:00 16.5 C 57 % 1023.9 hPa 0.0 l/m 7.0 km/h (2 Bft) W-NW 0.75 h 661 W/m 7.9 C 16.5 C 11.4 km/h (2 Bft)
05.09.2009 14:00 17.4 C 52 % 1023.5 hPa 0.0 l/m 7.8 km/h (2 Bft) W-NW 0.90 h 665 W/m 7.3 C 17.4 C 12.5 km/h (3 Bft)
05.09.2009 15:00 18.2 C 47 % 1023.5 hPa 0.0 l/m 8.7 km/h (2 Bft) W-NW 0.87 h 612 W/m 6.8 C 18.2 C 13.2 km/h (3 Bft)
05.09.2009 16:00 18.6 C 47 % 1023.3 hPa 0.0 l/m 6.6 km/h (2 Bft) W-NW 0.75 h 432 W/m 6.9 C 18.6 C 11.0 km/h (2 Bft)
05.09.2009 17:00 18.6 C 45 % 1023.1 hPa 0.0 l/m 6.9 km/h (2 Bft) W 0.92 h 338 W/m 6.5 C 18.6 C 11.1 km/h (2 Bft)
05.09.2009 18:00 17.6 C 47 % 1023.4 hPa 0.0 l/m 8.4 km/h (2 Bft) W 0.62 h 142 W/m 6.3 C 17.6 C 13.0 km/h (3 Bft)
05.09.2009 19:00 16.9 C 53 % 1023.8 hPa 0.0 l/m 3.4 km/h (1 Bft) W-NW 0.10 h 26 W/m 7.1 C 16.9 C 5.9 km/h (2 Bft)
05.09.2009 20:00 14.2 C 66 % 1024.5 hPa 0.0 l/m 2.0 km/h (1 Bft) O-SO 0.00 h 0 W/m 7.9 C 14.2 C 3.1 km/h (1 Bft)
05.09.2009 21:00 12.0 C 76 % 1025.3 hPa 0.0 l/m 3.0 km/h (1 Bft) O-SO 0.00 h 0 W/m 7.8 C 12.0 C 4.5 km/h (1 Bft)
05.09.2009 22:00 11.2 C 79 % 1025.8 hPa 0.0 l/m 1.1 km/h (1 Bft) O 0.00 h 0 W/m 7.7 C 11.2 C 2.1 km/h (1 Bft)
05.09.2009 23:00 10.8 C 83 % 1026.1 hPa 0.0 l/m 0.9 km/h (0 Bft) O 0.00 h 0 W/m 8.1 C 10.8 C 1.7 km/h (1 Bft)
06.09.2009 00:00 10.3 C 87 % 1026.3 hPa 0.0 l/m 1.9 km/h (1 Bft) O 0.00 h 0 W/m 8.2 C 10.3 C 3.5 km/h (1 Bft)
06.09.2009 01:00 10.4 C 88 % 1026.3 hPa 0.0 l/m 1.1 km/h (1 Bft) O 0.00 h 0 W/m 8.5 C 10.4 C 2.5 km/h (1 Bft)
06.09.2009 02:00 10.1 C 89 % 1026.1 hPa 0.0 l/m 1.4 km/h (1 Bft) O 0.00 h 0 W/m 8.3 C 10.1 C 2.4 km/h (1 Bft)
06.09.2009 03:00 9.4 C 90 % 1026.1 hPa 0.0 l/m 0.1 km/h (0 Bft) O 0.00 h 0 W/m 7.8 C 9.4 C 0.3 km/h (0 Bft)
06.09.2009 04:00 8.4 C 92 % 1026.2 hPa 0.0 l/m 0.9 km/h (0 Bft) O 0.00 h 0 W/m 7.2 C 8.4 C 1.8 km/h (1 Bft)
06.09.2009 05:00 7.7 C 93 % 1026.2 hPa 0.0 l/m 0.6 km/h (0 Bft) O 0.00 h 0 W/m 6.7 C 7.7 C 1.3 km/h (1 Bft)
06.09.2009 06:00 7.2 C 94 % 1026.4 hPa 0.0 l/m 1.0 km/h (0 Bft) O 0.00 h 7 W/m 6.4 C 7.2 C 1.6 km/h (1 Bft)
06.09.2009 07:00 7.2 C 96 % 1027.0 hPa 0.0 l/m 1.2 km/h (1 Bft) O 0.00 h 28 W/m 6.6 C 7.1 C 2.1 km/h (1 Bft)
06.09.2009 08:00 8.8 C 96 % 1027.4 hPa 0.0 l/m 0.1 km/h (0 Bft) O 0.98 h 191 W/m 8.3 C 8.8 C 0.4 km/h (0 Bft)
06.09.2009 09:00 12.0 C 84 % 1027.2 hPa 0.0 l/m 0.5 km/h (0 Bft) O 1.00 h 344 W/m 9.4 C 12.0 C 1.6 km/h (1 Bft)
06.09.2009 10:00 14.3 C 75 % 1026.9 hPa 0.0 l/m 1.9 km/h (1 Bft) N 1.00 h 495 W/m 9.9 C 14.3 C 3.9 km/h (1 Bft)
06.09.2009 11:00 16.6 C 67 % 1026.5 hPa 0.0 l/m 2.9 km/h (1 Bft) NW 1.00 h 614 W/m 10.5 C 16.6 C 5.0 km/h (1 Bft)
06.09.2009 12:00 18.0 C 61 % 1026.1 hPa 0.0 l/m 1.8 km/h (1 Bft) W-NW 1.00 h 692 W/m 10.5 C 18.0 C 4.0 km/h (1 Bft)
06.09.2009 13:00 19.1 C 56 % 1025.6 hPa 0.0 l/m 3.3 km/h (1 Bft) W-NW 1.00 h 715 W/m 10.1 C 19.1 C 5.7 km/h (1 Bft)
06.09.2009 14:00 20.2 C 49 % 1025.1 hPa 0.0 l/m 3.1 km/h (1 Bft) W 1.00 h 691 W/m 9.3 C 20.2 C 5.5 km/h (1 Bft)
06.09.2009 15:00 20.2 C 43 % 1024.5 hPa 0.0 l/m 2.6 km/h (1 Bft) O-SO 1.00 h 615 W/m 7.1 C 20.2 C 5.2 km/h (1 Bft)
06.09.2009 16:00 20.7 C 44 % 1024.0 hPa 0.0 l/m 2.2 km/h (1 Bft) O-SO 1.00 h 491 W/m 8.0 C 20.7 C 4.7 km/h (1 Bft)
06.09.2009 17:00 20.5 C 45 % 1023.5 hPa 0.0 l/m 3.1 km/h (1 Bft) SO 0.92 h 322 W/m 8.0 C 20.5 C 5.5 km/h (1 Bft)
06.09.2009 18:00 19.8 C 48 % 1023.4 hPa 0.0 l/m 3.1 km/h (1 Bft) O-SO 0.55 h 132 W/m 8.6 C 19.8 C 5.2 km/h (1 Bft)
06.09.2009 19:00 18.5 C 55 % 1023.5 hPa 0.0 l/m 2.2 km/h (1 Bft) O-SO 0.28 h 41 W/m 9.3 C 18.5 C 3.9 km/h (1 Bft)
06.09.2009 20:00 16.1 C 68 % 1023.6 hPa 0.0 l/m 2.6 km/h (1 Bft) SO 0.00 h 0 W/m 10.1 C 16.1 C 3.7 km/h (1 Bft)
06.09.2009 21:00 13.8 C 77 % 1023.8 hPa 0.0 l/m 0.4 km/h (0 Bft) O 0.00 h 0 W/m 9.8 C 13.8 C 0.9 km/h (0 Bft)
06.09.2009 22:00 12.4 C 82 % 1023.6 hPa 0.0 l/m 0.8 km/h (0 Bft) O 0.00 h 0 W/m 9.4 C 12.4 C 1.7 km/h (1 Bft)
06.09.2009 23:00 11.3 C 86 % 1023.5 hPa 0.0 l/m 1.4 km/h (1 Bft) O 0.00 h 0 W/m 9.1 C 11.3 C 2.7 km/h (1 Bft)
Min-Datum _ 06.09.09 01.09.09 03.09.09 - 31.08.09 - - - 06.09.09 06.09.09 31.08.09
_ Min-Zeit 07:00 16:48 09:30 - 00:27 - - - 15:23 06:59 01:43
Minimum _ 7.0 C 32 % 1006.2 hPa - 0.0 km/h (0 Bft) - - - 4.6 C 6.4 C 0.0 km/h (0 Bft)
Max-Datum _ 01.09.09 03.09.09 06.09.09 04.09.09 01.09.09 - 31.08.09 05.09.09 03.09.09 01.09.09 01.09.09
_ Max-Zeit 16:47 08:02 08:15 13:09 20:53 - 07:58 14:22 09:16 16:47 20:53
Maximum _ 31.9 C 100 % 1027.5 hPa 3.0 l/m 41.7 km/h
W (6 Bft)
- 0.02 h 1007 W/m 19.6 C 31.9 C 66.0 km/h
W (8 Bft)
Durchschnitt _ 16.7 C 79 % 1016.5 hPa #22.6 l/m 3.9 km/h (1 Bft) W #47:15 h 290 W/m 12.6 C 16.7 C 6.7 km/h (2 Bft)
© Kaiko 2009